Odin, Kansas
Current Conditions -  °F | °C
As of 10:15 AM on Wednesday 22 Oct 2014 (Local Time) from KGBD Reporting Station
Clear Clear  
Wind Chill: 66°   Ceiling: Unl
Heat Index: 66°   Visibility: 10mi
Dew Point: 52°   Wind: 16mph
Humidity: 60%   Direction: 190°S
Pressure: 30.06"   Gusts: 23mph
Location:  38.5656°N, 98.5907°W
Report Text: KGBD 221515Z AUTO 19014G20KT 10SM CLR 19/11 A3006 RMK AO1
Loading
Personal Weather Stations






























Interactive Weather Map
Tropical Storm Tracking
New forecast layout! Learn more

10-Day Weather Forecast

Advertisements
Track Severe Weather on mobile